createdAt,value
2018-02-08T00:00:12.299Z,63.42
2018-02-08T00:02:39.209Z,54.25
2018-02-08T00:05:06.169Z,66.60
2018-02-08T00:07:33.060Z,56.20
2018-02-08T00:10:00.886Z,61.83
2018-02-08T00:12:27.756Z,54.63
2018-02-08T00:14:54.625Z,59.10
2018-02-08T00:17:22.315Z,60.20
2018-02-08T00:19:49.190Z,55.45
2018-02-08T00:22:28.186Z,60.28
2018-02-08T00:24:55.060Z,61.15
2018-02-08T00:27:21.930Z,57.67
2018-02-08T00:29:48.872Z,62.05
2018-02-08T00:32:15.743Z,58.25
2018-02-08T00:34:43.468Z,60.50
2018-02-08T00:37:10.342Z,62.83
2018-02-08T00:39:38.029Z,60.12
2018-02-08T00:42:04.886Z,60.45
2018-02-08T00:44:31.759Z,64.50
2018-02-08T00:46:58.693Z,59.45
2018-02-08T00:49:25.571Z,58.55
2018-02-08T00:51:52.596Z,62.13
2018-02-08T00:54:19.466Z,60.10
2018-02-08T00:56:46.417Z,69.03
2018-02-08T00:59:13.278Z,61.70
2018-02-08T01:01:40.977Z,59.95
2018-02-08T01:04:07.855Z,66.90
2018-02-08T01:06:34.793Z,58.05
2018-02-08T01:09:01.715Z,58.15
2018-02-08T01:11:28.659Z,60.95
2018-02-08T01:13:55.596Z,59.13
2018-02-08T01:16:22.467Z,58.78
2018-02-08T01:18:49.391Z,61.83
2018-02-08T01:21:16.271Z,63.00
2018-02-08T01:23:43.204Z,56.17
2018-02-08T01:26:10.134Z,62.97
2018-02-08T01:28:37.074Z,57.22
2018-02-08T01:31:04.097Z,60.88
2018-02-08T01:33:30.976Z,56.42
2018-02-08T01:35:57.852Z,62.62
2018-02-08T01:38:24.776Z,61.05
2018-02-08T01:40:51.644Z,63.35
2018-02-08T01:43:18.581Z,66.82
2018-02-08T01:45:45.575Z,61.72
2018-02-08T01:48:12.448Z,66.30
2018-02-08T01:50:39.389Z,65.43
2018-02-08T01:53:06.249Z,64.35
2018-02-08T01:55:33.191Z,64.12
2018-02-08T01:58:00.116Z,64.05
2018-02-08T02:00:26.999Z,59.70
2018-02-08T02:02:53.955Z,66.57
2018-02-08T02:05:20.816Z,62.28
2018-02-08T02:07:48.491Z,68.20
2018-02-08T02:10:16.165Z,59.58
2018-02-08T02:12:43.029Z,62.50
2018-02-08T02:15:09.934Z,57.20
2018-02-08T02:17:37.667Z,60.60
2018-02-08T02:20:04.618Z,62.80
2018-02-08T02:22:31.554Z,60.00
2018-02-08T02:24:58.483Z,72.03
2018-02-08T02:27:25.365Z,61.67
2018-02-08T02:29:52.223Z,70.65
2018-02-08T02:32:19.905Z,63.90
2018-02-08T02:34:46.850Z,61.80
2018-02-08T02:37:13.712Z,63.83
2018-02-08T02:39:40.637Z,60.95
2018-02-08T02:42:08.243Z,61.05
2018-02-08T02:44:35.179Z,62.47
2018-02-08T02:47:02.064Z,61.70
2018-02-08T02:49:28.935Z,64.05
2018-02-08T02:51:58.706Z,63.80
2018-02-08T02:54:25.635Z,61.25
2018-02-08T02:56:52.568Z,56.55
2018-02-08T02:59:19.434Z,59.25
2018-02-08T03:01:46.371Z,62.15
2018-02-08T03:04:13.240Z,63.45
2018-02-08T03:06:40.238Z,65.93
2018-02-08T03:09:07.257Z,63.60
2018-02-08T03:11:34.967Z,63.70
2018-02-08T03:14:01.913Z,63.47
2018-02-08T03:16:28.871Z,67.32
2018-02-08T03:18:55.724Z,67.20
2018-02-08T03:21:22.655Z,56.75
2018-02-08T03:23:49.535Z,66.85
2018-02-08T03:26:16.532Z,64.78
2018-02-08T03:28:43.527Z,64.75
2018-02-08T03:31:25.330Z,59.17
2018-02-08T03:33:52.307Z,67.97
2018-02-08T03:36:19.184Z,72.50
2018-02-08T03:38:46.114Z,64.78
2018-02-08T03:41:12.986Z,61.83
2018-02-08T03:43:39.843Z,64.22
2018-02-08T03:46:06.788Z,63.83
2018-02-08T03:48:33.657Z,66.57
2018-02-08T03:51:01.263Z,65.80
2018-02-08T03:53:28.199Z,60.58
2018-02-08T03:55:55.131Z,67.55
2018-02-08T03:58:22.028Z,63.55
2018-02-08T04:00:49.018Z,66.40
2018-02-08T04:03:15.963Z,59.70
2018-02-08T04:05:42.957Z,65.90
2018-02-08T04:08:09.851Z,65.03
2018-02-08T04:10:37.527Z,75.12
2018-02-08T04:13:04.395Z,63.97
2018-02-08T04:15:31.339Z,68.68
2018-02-08T04:17:58.193Z,70.82
2018-02-08T04:20:25.140Z,65.78
2018-02-08T04:22:52.034Z,69.65
2018-02-08T04:25:19.634Z,66.60
2018-02-08T04:27:46.566Z,66.90
2018-02-08T04:30:13.435Z,58.58
2018-02-08T04:32:40.311Z,71.97
2018-02-08T04:35:07.247Z,65.78
2018-02-08T04:37:34.116Z,59.42
2018-02-08T04:40:13.254Z,60.60
2018-02-08T04:42:52.902Z,73.95
2018-02-08T04:45:32.528Z,74.60
2018-02-08T04:48:07.490Z,61.00
2018-02-08T04:50:34.426Z,66.60
2018-02-08T04:53:01.376Z,73.43
2018-02-08T04:55:28.370Z,68.68
2018-02-08T04:57:55.242Z,69.40
2018-02-08T05:00:22.129Z,69.18
2018-02-08T05:02:49.127Z,67.00
2018-02-08T05:05:16.063Z,62.90
2018-02-08T05:07:43.008Z,70.62
2018-02-08T05:10:09.882Z,67.53
2018-02-08T05:12:37.579Z,62.53
2018-02-08T05:15:04.570Z,66.45
2018-02-08T05:17:31.434Z,68.97
2018-02-08T05:19:58.388Z,63.20
2018-02-08T05:22:28.906Z,71.87
2018-02-08T05:25:01.462Z,65.32
2018-02-08T05:27:42.081Z,65.95
2018-02-08T05:30:12.262Z,63.55
2018-02-08T05:32:39.174Z,65.78
2018-02-08T05:35:06.838Z,65.20
2018-02-08T05:37:33.767Z,67.50
2018-02-08T05:40:00.634Z,62.72
2018-02-08T05:42:35.711Z,77.93
2018-02-08T05:45:03.286Z,77.85
2018-02-08T05:47:30.895Z,73.90
2018-02-08T05:49:57.899Z,83.53
2018-02-08T05:52:26.682Z,83.78
2018-02-08T05:54:53.615Z,76.45
2018-02-08T05:57:20.482Z,67.40
2018-02-08T05:59:48.084Z,70.78
2018-02-08T06:02:15.016Z,73.50
2018-02-08T06:04:41.942Z,73.68
2018-02-08T06:07:08.790Z,76.15
2018-02-08T06:09:35.710Z,75.40
2018-02-08T06:12:03.374Z,80.70
2018-02-08T06:14:30.304Z,73.68
2018-02-08T06:16:57.186Z,80.50
2018-02-08T06:19:24.131Z,73.07
2018-02-08T06:21:51.755Z,77.20
2018-02-08T06:24:18.818Z,76.47
2018-02-08T06:26:45.791Z,77.62
2018-02-08T06:29:12.674Z,70.72
2018-02-08T06:31:39.603Z,69.15
2018-02-08T06:34:06.454Z,70.47
2018-02-08T06:36:33.406Z,74.85
2018-02-08T06:39:00.273Z,69.75
2018-02-08T06:41:27.189Z,72.75
2018-02-08T06:43:54.122Z,65.65
2018-02-08T06:46:21.063Z,75.97
2018-02-08T06:48:47.976Z,79.00
2018-02-08T06:51:14.860Z,75.80
2018-02-08T06:53:41.785Z,70.30
2018-02-08T06:56:09.449Z,71.62
2018-02-08T06:58:37.103Z,71.68
2018-02-08T07:01:04.778Z,66.10
2018-02-08T07:03:31.650Z,71.05
2018-02-08T07:05:58.597Z,78.20
2018-02-08T07:08:25.531Z,70.90
2018-02-08T07:10:52.518Z,70.18
2018-02-08T07:13:19.398Z,67.50
2018-02-08T07:15:47.123Z,74.50
2018-02-08T07:18:14.046Z,67.53
2018-02-08T07:20:40.980Z,79.95
2018-02-08T07:23:07.926Z,69.37
2018-02-08T07:25:34.895Z,66.03
2018-02-08T07:28:01.934Z,72.93
2018-02-08T07:30:28.987Z,74.93
2018-02-08T07:32:55.974Z,69.90
2018-02-08T07:35:22.916Z,73.87
2018-02-08T07:37:49.940Z,73.95
2018-02-08T07:40:16.905Z,62.88
2018-02-08T07:42:43.918Z,76.82
2018-02-08T07:45:18.626Z,67.35
2018-02-08T07:47:45.935Z,67.32
2018-02-08T07:50:12.945Z,61.65
2018-02-08T07:52:44.826Z,65.03
2018-02-08T07:55:11.831Z,63.67
2018-02-08T07:57:39.761Z,64.72
2018-02-08T08:00:06.715Z,55.80
2018-02-08T08:02:33.691Z,63.55
2018-02-08T08:05:00.676Z,60.53
2018-02-08T08:07:27.833Z,58.30
2018-02-08T08:09:54.901Z,55.83
2018-02-08T08:12:21.887Z,59.20
2018-02-08T08:14:48.816Z,54.23
2018-02-08T08:17:17.470Z,54.27
2018-02-08T08:19:44.403Z,57.60
2018-02-08T08:22:11.323Z,52.37
2018-02-08T08:24:38.257Z,58.80
2018-02-08T08:27:05.923Z,53.87
2018-02-08T08:29:32.871Z,58.00
2018-02-08T08:31:59.775Z,58.13
2018-02-08T08:34:26.706Z,48.60
2018-02-08T08:36:53.571Z,55.97
2018-02-08T08:39:20.537Z,60.43
2018-02-08T08:41:47.412Z,63.17
2018-02-08T08:44:14.375Z,61.50
2018-02-08T08:46:41.270Z,57.07
2018-02-08T08:49:08.955Z,58.27
2018-02-08T08:51:35.827Z,60.67
2018-02-08T08:54:02.799Z,61.47
2018-02-08T08:56:29.679Z,60.73
2018-02-08T08:58:56.658Z,75.80
2018-02-08T09:01:23.518Z,63.60
2018-02-08T09:03:50.448Z,59.70
2018-02-08T09:06:17.427Z,59.50
2018-02-08T09:08:44.297Z,57.10
2018-02-08T09:11:11.271Z,63.70
2018-02-08T09:13:38.142Z,60.13
2018-02-08T09:16:05.038Z,56.80
2018-02-08T09:18:31.966Z,60.20
2018-02-08T09:20:58.847Z,58.93
2018-02-08T09:23:25.815Z,60.17
2018-02-08T09:25:52.695Z,57.43
2018-02-08T09:28:19.633Z,60.43
2018-02-08T09:30:46.487Z,58.63
2018-02-08T09:33:13.422Z,61.90
2018-02-08T09:35:40.371Z,66.27
2018-02-08T09:38:07.282Z,62.10
2018-02-08T09:40:34.159Z,62.80
2018-02-08T09:43:01.099Z,70.13
2018-02-08T09:45:27.954Z,72.40
2018-02-08T09:47:54.890Z,69.70
2018-02-08T09:50:21.778Z,66.03
2018-02-08T09:52:48.728Z,69.77
2018-02-08T09:55:16.461Z,69.50
2018-02-08T09:57:43.435Z,64.00
2018-02-08T10:00:11.087Z,65.03
2018-02-08T10:02:37.989Z,68.37
2018-02-08T10:05:04.937Z,67.70
2018-02-08T10:07:31.810Z,61.10
2018-02-08T10:09:58.754Z,71.53
2018-02-08T10:12:25.687Z,69.53
2018-02-08T10:14:52.560Z,65.60
2018-02-08T10:17:19.490Z,67.50
2018-02-08T10:19:46.394Z,59.78
2018-02-08T10:22:13.348Z,66.28
2018-02-08T10:24:40.240Z,69.43
2018-02-08T10:27:07.980Z,69.20
2018-02-08T10:29:34.839Z,71.37
2018-02-08T10:32:01.795Z,63.55
2018-02-08T10:34:29.406Z,69.37
2018-02-08T10:36:56.351Z,72.78
2018-02-08T10:39:23.435Z,67.22
2018-02-08T10:41:50.534Z,68.28
2018-02-08T10:44:17.398Z,63.15
2018-02-08T10:46:44.281Z,66.70
2018-02-08T10:49:11.226Z,70.78
2018-02-08T10:51:49.747Z,58.50
2018-02-08T10:54:22.803Z,65.13
2018-02-08T10:56:59.039Z,65.20
2018-02-08T10:59:28.153Z,65.83
2018-02-08T11:01:55.065Z,62.13
2018-02-08T11:04:22.780Z,66.68
2018-02-08T11:06:52.498Z,67.20
2018-02-08T11:09:19.432Z,77.80
2018-02-08T11:11:46.303Z,69.27
2018-02-08T11:14:13.232Z,69.07
2018-02-08T11:16:47.102Z,65.47
2018-02-08T11:19:26.204Z,71.60
2018-02-08T11:21:53.126Z,65.17
2018-02-08T11:24:20.058Z,70.90
2018-02-08T11:26:47.782Z,66.67
2018-02-08T11:29:15.393Z,68.63
2018-02-08T11:31:42.325Z,66.50
2018-02-08T11:34:09.265Z,68.53
2018-02-08T11:36:36.156Z,65.78
2018-02-08T11:39:09.041Z,70.93
2018-02-08T11:41:36.040Z,72.90
2018-02-08T11:44:03.105Z,74.80
2018-02-08T11:46:29.992Z,66.57
2018-02-08T11:48:58.122Z,70.00
2018-02-08T11:51:25.094Z,79.62
2018-02-08T11:53:51.960Z,72.05
2018-02-08T11:56:25.013Z,71.97
2018-02-08T11:58:52.001Z,65.00
2018-02-08T12:01:19.654Z,75.47
2018-02-08T12:03:46.656Z,62.20
2018-02-08T12:06:13.600Z,68.78
2018-02-08T12:08:40.542Z,67.47
2018-02-08T12:11:07.523Z,75.03
2018-02-08T12:13:34.407Z,75.45
2018-02-08T12:16:01.350Z,66.70
2018-02-08T12:18:29.058Z,68.43
2018-02-08T12:20:55.978Z,71.45
2018-02-08T12:23:22.840Z,73.30
2018-02-08T12:25:49.776Z,67.20
2018-02-08T12:28:16.656Z,63.63
2018-02-08T12:30:43.679Z,68.03
2018-02-08T12:33:10.558Z,69.47
2018-02-08T12:35:37.511Z,71.87
2018-02-08T12:38:04.444Z,70.97
2018-02-08T12:40:31.511Z,70.40
2018-02-08T12:42:59.662Z,73.90
2018-02-08T12:45:26.623Z,68.55
2018-02-08T12:47:53.911Z,75.47
2018-02-08T12:50:21.796Z,76.68
2018-02-08T12:52:50.069Z,81.22
2018-02-08T12:55:25.936Z,75.28
2018-02-08T12:57:58.057Z,74.47
2018-02-08T13:00:30.951Z,79.10
2018-02-08T13:02:58.670Z,76.12
2018-02-08T13:08:10.828Z,70.15
2018-02-08T13:10:41.644Z,77.87
2018-02-08T13:13:11.814Z,68.53
2018-02-08T13:15:50.080Z,79.28
2018-02-08T13:18:25.203Z,75.12
2018-02-08T13:20:52.260Z,74.15
2018-02-08T13:23:19.235Z,78.03
2018-02-08T13:25:46.935Z,78.57
2018-02-08T13:28:22.656Z,68.43
2018-02-08T13:30:52.207Z,69.28
2018-02-08T13:33:19.147Z,75.75
2018-02-08T13:35:50.345Z,72.35
2018-02-08T13:38:18.034Z,68.90
2018-02-08T13:40:54.540Z,72.78
2018-02-08T13:43:24.750Z,74.15
2018-02-08T13:46:02.220Z,72.68
2018-02-08T13:48:38.433Z,75.22
2018-02-08T13:51:17.845Z,74.50
2018-02-08T13:53:55.016Z,75.05
2018-02-08T13:56:34.534Z,71.00
2018-02-08T13:59:26.075Z,75.37
2018-02-08T14:02:02.073Z,76.18
2018-02-08T14:04:29.850Z,68.68
2018-02-08T14:07:03.718Z,78.32
2018-02-08T14:09:38.251Z,74.45
2018-02-08T14:12:13.006Z,75.68
2018-02-08T14:14:40.411Z,75.30
2018-02-08T14:17:15.051Z,71.03
2018-02-08T14:22:26.137Z,77.70
2018-02-08T14:24:57.573Z,74.47
2018-02-08T14:27:29.031Z,78.55
2018-02-08T14:29:56.911Z,66.97
2018-02-08T14:32:25.500Z,70.07
2018-02-08T14:35:04.366Z,84.35
2018-02-08T14:37:36.064Z,74.65
2018-02-08T14:40:04.459Z,74.68
2018-02-08T14:42:33.177Z,82.45
2018-02-08T14:45:03.077Z,79.22
2018-02-08T14:47:38.028Z,72.65
2018-02-08T14:50:07.281Z,74.10
2018-02-08T14:52:47.700Z,80.87
2018-02-08T14:55:25.856Z,75.95
2018-02-08T14:58:04.752Z,84.32
2018-02-08T15:00:33.250Z,77.45
2018-02-08T15:03:02.015Z,76.32
2018-02-08T15:05:29.052Z,79.35
2018-02-08T15:08:00.113Z,75.78
2018-02-08T15:10:34.374Z,78.37
2018-02-08T15:13:10.949Z,80.28
2018-02-08T15:15:41.067Z,82.72
2018-02-08T15:18:09.610Z,75.03
2018-02-08T15:20:39.308Z,72.72
2018-02-08T15:23:06.194Z,80.68
2018-02-08T15:25:38.703Z,84.37
2018-02-08T15:28:11.857Z,89.62
2018-02-08T15:33:31.562Z,79.78
2018-02-08T15:36:07.331Z,89.20
2018-02-08T15:38:35.124Z,88.35
2018-02-08T15:41:11.953Z,79.07
2018-02-08T15:43:45.191Z,91.00
2018-02-08T15:46:23.223Z,81.00
2018-02-08T15:48:55.317Z,87.45
2018-02-08T15:51:25.632Z,81.10
2018-02-08T15:54:06.769Z,85.03
2018-02-08T15:56:41.089Z,86.05
2018-02-08T15:59:11.490Z,81.25
2018-02-08T16:01:45.592Z,85.28
2018-02-08T16:04:24.999Z,84.15
2018-02-08T16:07:00.886Z,78.22
2018-02-08T16:09:40.954Z,83.15
2018-02-08T16:14:51.135Z,85.53
2018-02-08T16:17:28.558Z,86.32
2018-02-08T16:19:57.882Z,93.20
2018-02-08T16:25:15.689Z,96.63
2018-02-08T16:27:45.295Z,88.45
2018-02-08T16:30:16.634Z,88.05
2018-02-08T16:32:56.461Z,87.35
2018-02-08T16:35:31.767Z,92.22
2018-02-08T16:38:00.031Z,91.87
2018-02-08T16:40:37.124Z,82.60
2018-02-08T16:43:06.911Z,95.22
2018-02-08T16:45:40.869Z,83.00
2018-02-08T16:48:10.765Z,86.20
2018-02-08T16:50:43.362Z,92.03
2018-02-08T16:53:11.886Z,87.00
2018-02-08T16:55:44.979Z,85.03
2018-02-08T16:58:14.665Z,88.22
2018-02-08T17:00:44.766Z,90.62
2018-02-08T17:03:25.786Z,92.57
2018-02-08T17:05:57.008Z,92.47
2018-02-08T17:08:30.065Z,87.43
2018-02-08T17:10:58.998Z,93.53
2018-02-08T17:13:30.904Z,91.15
2018-02-08T17:15:58.538Z,97.55
2018-02-08T17:18:26.255Z,88.20
2018-02-08T17:20:59.447Z,91.15
2018-02-08T17:23:34.056Z,86.90
2018-02-08T17:26:02.561Z,85.18
2018-02-08T17:28:30.194Z,96.43
2018-02-08T17:31:07.675Z,81.35
2018-02-08T17:33:39.421Z,79.95
2018-02-08T17:36:16.769Z,84.62
2018-02-08T17:38:44.295Z,95.68
2018-02-08T17:41:16.249Z,81.68
2018-02-08T17:43:44.075Z,91.45
2018-02-08T17:46:12.276Z,87.47
2018-02-08T17:48:44.837Z,95.53
2018-02-08T17:51:12.435Z,84.55
2018-02-08T17:53:40.910Z,80.60
2018-02-08T17:56:08.364Z,86.00
2018-02-08T17:58:35.641Z,79.65
2018-02-08T18:01:02.619Z,83.07
2018-02-08T18:03:29.547Z,87.82
2018-02-08T18:05:56.427Z,104.90
2018-02-08T18:08:23.355Z,107.18
2018-02-08T18:10:50.228Z,99.40
2018-02-08T18:13:17.920Z,100.60
2018-02-08T18:15:44.791Z,97.50
2018-02-08T18:18:11.738Z,93.53
2018-02-08T18:20:38.672Z,108.35
2018-02-08T18:23:05.535Z,112.82
2018-02-08T18:25:32.464Z,113.88
2018-02-08T18:27:59.394Z,96.93
2018-02-08T18:30:26.275Z,91.90
2018-02-08T18:32:53.152Z,96.40
2018-02-08T18:35:20.080Z,107.72
2018-02-08T18:37:46.974Z,98.70
2018-02-08T18:40:14.020Z,101.57
2018-02-08T18:42:40.969Z,91.05
2018-02-08T18:45:07.910Z,84.50
2018-02-08T18:47:34.866Z,86.45
2018-02-08T18:50:01.744Z,90.55
2018-02-08T18:52:28.687Z,87.57
2018-02-08T18:54:55.567Z,95.72
2018-02-08T18:57:23.512Z,89.35
2018-02-08T18:59:50.399Z,77.05
2018-02-08T19:02:17.356Z,82.68
2018-02-08T19:04:58.496Z,90.95
2018-02-08T19:07:26.144Z,89.70
2018-02-08T19:09:55.106Z,85.90
2018-02-08T19:12:22.003Z,85.20
2018-02-08T19:14:48.961Z,79.43
2018-02-08T19:17:23.185Z,81.40
2018-02-08T19:19:50.959Z,89.40
2018-02-08T19:22:21.116Z,105.93
2018-02-08T19:24:48.126Z,96.90
2018-02-08T19:27:15.072Z,93.97
2018-02-08T19:29:56.225Z,82.28
2018-02-08T19:32:23.920Z,94.45
2018-02-08T19:34:53.061Z,90.22
2018-02-08T19:37:20.068Z,91.37
2018-02-08T19:39:47.060Z,99.62
2018-02-08T19:42:14.018Z,86.03
2018-02-08T19:44:40.946Z,88.32
2018-02-08T19:47:07.842Z,78.15
2018-02-08T19:49:48.018Z,88.93
2018-02-08T19:52:20.356Z,84.55
2018-02-08T19:54:47.401Z,85.62
2018-02-08T19:57:15.387Z,87.80
2018-02-08T19:59:42.599Z,87.45
2018-02-08T20:02:09.547Z,86.78
2018-02-08T20:04:36.409Z,86.50
2018-02-08T20:07:03.379Z,85.03
2018-02-08T20:09:33.094Z,84.95
2018-02-08T20:12:00.147Z,85.82
2018-02-08T20:14:30.955Z,88.05
2018-02-08T20:16:57.946Z,81.72
2018-02-08T20:19:26.927Z,81.95
2018-02-08T20:22:01.254Z,80.38
2018-02-08T20:24:28.283Z,78.53
2018-02-08T20:27:01.251Z,86.30
2018-02-08T20:29:30.846Z,77.50
2018-02-08T20:31:58.058Z,89.18
2018-02-08T20:34:24.982Z,79.05
2018-02-08T20:36:57.241Z,86.97
2018-02-08T20:39:24.872Z,81.22
2018-02-08T20:41:51.859Z,91.93
2018-02-08T20:44:19.497Z,82.30
2018-02-08T20:46:51.739Z,80.55
2018-02-08T20:49:18.736Z,89.05
2018-02-08T20:51:45.617Z,87.15
2018-02-08T20:54:12.570Z,87.50
2018-02-08T20:56:39.462Z,92.25
2018-02-08T20:59:07.155Z,86.00
2018-02-08T21:01:34.443Z,88.80
2018-02-08T21:04:01.317Z,97.72
2018-02-08T21:06:28.230Z,87.88
2018-02-08T21:09:03.102Z,93.93
2018-02-08T21:11:29.994Z,93.65
2018-02-08T21:13:57.597Z,92.28
2018-02-08T21:16:28.791Z,97.72
2018-02-08T21:18:55.789Z,85.28
2018-02-08T21:21:22.672Z,87.32
2018-02-08T21:23:49.643Z,89.95
2018-02-08T21:26:16.591Z,92.45
2018-02-08T21:28:43.476Z,98.07
2018-02-08T21:31:10.350Z,108.32
2018-02-08T21:33:37.308Z,101.78
2018-02-08T21:36:04.184Z,112.30
2018-02-08T21:38:31.054Z,103.72
2018-02-08T21:40:59.491Z,94.20
2018-02-08T21:46:16.084Z,96.85
2018-02-08T21:48:57.620Z,98.78
2018-02-08T21:51:25.439Z,95.57
2018-02-08T21:53:52.375Z,89.82
2018-02-08T21:56:19.244Z,94.95
2018-02-08T21:58:46.102Z,89.15
2018-02-08T22:01:13.060Z,97.72
2018-02-08T22:03:39.970Z,87.97
2018-02-08T22:06:07.644Z,101.20
2018-02-08T22:08:34.504Z,105.00
2018-02-08T22:11:01.440Z,109.15
2018-02-08T22:13:28.464Z,96.50
2018-02-08T22:15:55.378Z,95.47
2018-02-08T22:18:22.273Z,100.07
2018-02-08T22:20:49.280Z,99.57
2018-02-08T22:23:16.230Z,94.25
2018-02-08T22:25:43.116Z,102.03
2018-02-08T22:28:09.994Z,98.32
2018-02-08T22:30:37.007Z,89.53
2018-02-08T22:33:03.871Z,86.78
2018-02-08T22:35:30.720Z,88.00
2018-02-08T22:37:57.650Z,93.28
2018-02-08T22:40:24.568Z,95.72
2018-02-08T22:42:52.274Z,82.20
2018-02-08T22:45:19.205Z,84.78
2018-02-08T22:47:46.123Z,88.62
2018-02-08T22:50:13.771Z,82.90
2018-02-08T22:52:42.479Z,93.85
2018-02-08T22:55:10.098Z,98.00
2018-02-08T22:57:37.036Z,88.97
2018-02-08T23:00:04.147Z,83.90
2018-02-08T23:02:31.060Z,86.35
2018-02-08T23:04:57.992Z,82.55
2018-02-08T23:07:24.867Z,94.78
2018-02-08T23:09:52.591Z,95.00
2018-02-08T23:12:19.464Z,94.07
2018-02-08T23:14:47.104Z,92.22
2018-02-08T23:17:14.042Z,79.78
2018-02-08T23:19:40.933Z,88.15
2018-02-08T23:22:07.905Z,90.00
2018-02-08T23:24:34.778Z,89.85
2018-02-08T23:27:01.644Z,93.50
2018-02-08T23:29:28.596Z,83.50
2018-02-08T23:31:55.518Z,88.95
2018-02-08T23:34:22.531Z,81.65
2018-02-08T23:36:49.399Z,84.70
2018-02-08T23:39:16.268Z,85.05
2018-02-08T23:41:43.207Z,93.90
2018-02-08T23:44:10.092Z,93.90
2018-02-08T23:46:37.151Z,85.47
2018-02-08T23:49:04.026Z,91.32
2018-02-08T23:51:30.906Z,90.20
2018-02-08T23:53:57.937Z,89.35
2018-02-08T23:56:24.904Z,92.97
2018-02-08T23:58:53.357Z,90.40
